createdAt,value
2022-09-02T00:02:43.836Z,63.90
2022-09-02T00:07:45.932Z,64.40
2022-09-02T00:12:49.370Z,64.20
2022-09-02T00:17:51.437Z,64.70
2022-09-02T00:22:53.854Z,65.20
2022-09-02T00:27:57.289Z,65.50
2022-09-02T00:32:59.591Z,66.30
2022-09-02T00:38:02.371Z,66.10
2022-09-02T00:43:09.124Z,66.50
2022-09-02T00:48:11.514Z,67.30
2022-09-02T00:53:15.446Z,67.90
2022-09-02T00:58:26.806Z,68.10
2022-09-02T01:03:35.107Z,68.90
2022-09-02T01:08:39.332Z,69.20
2022-09-02T01:13:44.383Z,69.30
2022-09-02T01:18:50.188Z,70.20
2022-09-02T01:23:55.062Z,71.00
2022-09-02T01:28:57.166Z,71.60
2022-09-02T01:33:59.686Z,72.00
2022-09-02T01:39:03.182Z,72.10
2022-09-02T01:44:06.935Z,71.90
2022-09-02T01:49:09.312Z,72.00
2022-09-02T01:54:12.915Z,72.10
2022-09-02T01:59:18.218Z,71.80
2022-09-02T02:04:20.346Z,71.50
2022-09-02T02:09:25.108Z,72.00
2022-09-02T02:14:27.220Z,72.10
2022-09-02T02:19:29.993Z,72.80
2022-09-02T02:24:35.184Z,72.80
2022-09-02T02:29:37.510Z,73.50
2022-09-02T02:34:39.933Z,74.00
2022-09-02T02:39:44.621Z,75.20
2022-09-02T02:44:46.735Z,75.30
2022-09-02T02:49:49.022Z,75.80
2022-09-02T02:54:52.607Z,75.50
2022-09-02T02:59:54.738Z,76.00
2022-09-02T03:04:56.796Z,76.80
2022-09-02T03:10:00.313Z,77.50
2022-09-02T03:15:03.183Z,78.20
2022-09-02T03:20:08.073Z,78.20
2022-09-02T03:25:13.921Z,78.80
2022-09-02T03:30:18.800Z,79.10
2022-09-02T03:35:22.964Z,79.20
2022-09-02T03:40:28.542Z,79.60
2022-09-02T03:45:31.196Z,79.80
2022-09-02T03:50:41.171Z,80.30
2022-09-02T03:55:44.663Z,80.70
2022-09-02T04:00:51.604Z,81.30
2022-09-02T04:05:53.736Z,81.60
2022-09-02T04:10:57.314Z,82.10
2022-09-02T04:16:01.830Z,82.20
2022-09-02T04:21:04.981Z,82.40
2022-09-02T04:26:10.777Z,82.70
2022-09-02T04:31:15.028Z,83.00
2022-09-02T04:36:19.529Z,83.20
2022-09-02T04:41:26.537Z,83.00
2022-09-02T04:46:34.599Z,82.70
2022-09-02T04:51:37.138Z,82.50
2022-09-02T04:56:40.615Z,82.50
2022-09-02T05:01:43.127Z,82.00
2022-09-02T05:06:46.930Z,82.00
2022-09-02T05:11:52.081Z,81.70
2022-09-02T05:16:54.927Z,81.70
2022-09-02T05:21:59.198Z,81.50
2022-09-02T05:27:02.670Z,81.00
2022-09-02T05:32:05.203Z,80.50
2022-09-02T05:37:07.755Z,80.40
2022-09-02T05:42:11.742Z,80.10
2022-09-02T05:47:14.446Z,80.60
2022-09-02T05:52:18.178Z,79.60
2022-09-02T05:57:22.748Z,79.50
2022-09-02T06:02:26.360Z,79.60
2022-09-02T06:07:28.920Z,79.50
2022-09-02T06:12:33.308Z,78.90
2022-09-02T06:17:35.438Z,78.70
2022-09-02T06:22:37.713Z,78.90
2022-09-02T06:27:41.165Z,77.50
2022-09-02T06:32:43.453Z,76.10
2022-09-02T06:37:52.944Z,75.30
2022-09-02T06:42:57.509Z,74.80
2022-09-02T06:47:59.601Z,73.60
2022-09-02T06:53:05.187Z,73.70
2022-09-02T06:58:09.934Z,72.80
2022-09-02T07:03:29.964Z,72.50
2022-09-02T07:08:32.243Z,72.20
2022-09-02T07:13:36.538Z,71.00
2022-09-02T07:18:39.049Z,71.10
2022-09-02T07:23:41.526Z,70.60
2022-09-02T07:28:45.010Z,70.70
2022-09-02T07:33:49.973Z,70.00
2022-09-02T07:38:53.747Z,69.80
2022-09-02T07:43:59.747Z,69.60
2022-09-02T07:49:04.216Z,69.40
2022-09-02T07:54:07.649Z,68.00
2022-09-02T07:59:11.938Z,68.50
2022-09-02T08:04:14.093Z,67.90
2022-09-02T08:09:16.302Z,67.50
2022-09-02T08:14:24.192Z,67.10
2022-09-02T08:19:27.609Z,67.20
2022-09-02T08:24:32.579Z,66.90
2022-09-02T08:29:36.032Z,66.70
2022-09-02T08:34:38.118Z,65.60
2022-09-02T08:39:40.290Z,64.70
2022-09-02T08:44:43.925Z,65.60
2022-09-02T08:49:51.164Z,64.50
2022-09-02T08:54:55.427Z,64.40
2022-09-02T09:00:02.677Z,62.80
2022-09-02T09:05:23.211Z,63.60
2022-09-02T09:10:31.241Z,61.30
2022-09-02T09:15:41.730Z,61.40
2022-09-02T09:20:48.690Z,59.60
2022-09-02T09:25:53.524Z,57.60
2022-09-02T09:30:57.377Z,57.90
2022-09-02T09:35:59.484Z,56.60
2022-09-02T09:41:16.557Z,53.80
2022-09-02T09:46:28.064Z,53.00
2022-09-02T09:51:30.223Z,50.90
2022-09-02T09:56:52.015Z,51.90
2022-09-02T10:01:58.859Z,51.80
2022-09-02T10:07:01.484Z,48.70
2022-09-02T10:12:05.752Z,47.20
2022-09-02T10:17:28.014Z,46.10
2022-09-02T10:23:06.803Z,44.70
2022-09-02T10:28:17.123Z,42.40
2022-09-02T10:33:31.999Z,42.50
2022-09-02T10:38:42.061Z,42.40
2022-09-02T10:44:05.931Z,42.70
2022-09-02T10:49:21.020Z,43.30
2022-09-02T10:54:37.271Z,42.20
2022-09-02T10:59:45.183Z,42.60
2022-09-02T11:04:56.658Z,40.70
2022-09-02T11:10:04.739Z,40.30
2022-09-02T11:15:16.163Z,39.30
2022-09-02T11:20:30.432Z,37.80
2022-09-02T11:25:39.837Z,38.30
2022-09-02T11:30:46.846Z,37.70
2022-09-02T11:35:51.066Z,37.00
2022-09-02T11:41:35.951Z,36.70
2022-09-02T11:47:08.049Z,35.10
2022-09-02T11:52:26.470Z,36.90
2022-09-02T11:57:28.737Z,37.00
2022-09-02T12:02:38.468Z,38.40
2022-09-02T12:07:50.924Z,38.50
2022-09-02T12:13:18.837Z,34.50
2022-09-02T12:18:31.846Z,33.90
2022-09-02T12:24:08.821Z,35.80
2022-09-02T12:29:32.048Z,34.10
2022-09-02T12:34:54.527Z,32.60
2022-09-02T12:40:11.283Z,32.80
2022-09-02T12:45:29.029Z,31.30
2022-09-02T12:50:36.217Z,32.10
2022-09-02T12:55:54.139Z,30.90
2022-09-02T13:01:10.743Z,30.00
2022-09-02T13:06:23.590Z,30.00
2022-09-02T13:12:07.370Z,29.10
2022-09-02T13:17:44.074Z,29.00
2022-09-02T13:23:12.305Z,29.00
2022-09-02T13:28:50.859Z,28.50
2022-09-02T13:34:00.987Z,28.60
2022-09-02T13:39:18.690Z,28.10
2022-09-02T13:44:26.163Z,28.00
2022-09-02T13:49:37.654Z,27.20
2022-09-02T13:54:44.326Z,27.10
2022-09-02T13:59:50.514Z,26.80
2022-09-02T14:04:59.819Z,26.80
2022-09-02T14:10:04.830Z,26.60
2022-09-02T14:15:09.593Z,26.50
2022-09-02T14:20:20.044Z,25.80
2022-09-02T14:25:27.258Z,26.20
2022-09-02T14:30:35.192Z,25.80
2022-09-02T14:35:38.654Z,25.60
2022-09-02T14:40:43.457Z,25.70
2022-09-02T14:45:50.008Z,25.30
2022-09-02T14:51:02.633Z,24.40
2022-09-02T14:56:06.317Z,24.10
2022-09-02T15:01:09.588Z,24.10
2022-09-02T15:06:15.236Z,24.60
2022-09-02T15:11:20.548Z,24.60
2022-09-02T15:16:22.805Z,24.90
2022-09-02T15:21:26.328Z,25.30
2022-09-02T15:26:28.654Z,26.40
2022-09-02T15:31:31.191Z,27.20
2022-09-02T15:36:34.806Z,28.20
2022-09-02T15:41:37.858Z,29.00
2022-09-02T15:46:40.243Z,29.80
2022-09-02T15:51:45.950Z,30.70
2022-09-02T15:56:49.739Z,30.90
2022-09-02T16:01:55.306Z,31.70
2022-09-02T16:06:58.983Z,32.30
2022-09-02T16:12:01.123Z,32.90
2022-09-02T16:17:03.482Z,33.70
2022-09-02T16:22:07.077Z,34.00
2022-09-02T16:27:10.014Z,34.80
2022-09-02T16:32:26.808Z,33.00
2022-09-02T16:37:31.482Z,30.30
2022-09-02T16:42:37.492Z,30.00
2022-09-02T16:47:40.386Z,30.00
2022-09-02T16:52:43.848Z,31.80
2022-09-02T16:57:45.924Z,33.10
2022-09-02T17:02:48.213Z,33.80
2022-09-02T17:07:52.563Z,34.70
2022-09-02T17:12:55.722Z,35.80
2022-09-02T17:18:01.169Z,36.40
2022-09-02T17:23:04.993Z,37.30
2022-09-02T17:28:09.927Z,38.20
2022-09-02T17:33:14.895Z,38.80
2022-09-02T17:38:18.742Z,39.50
2022-09-02T17:43:21.898Z,40.10
2022-09-02T17:48:59.368Z,40.10
2022-09-02T17:53:47.637Z,40.60
2022-09-02T17:59:02.040Z,41.70
2022-09-02T18:04:18.680Z,42.30
2022-09-02T18:09:25.762Z,43.10
2022-09-02T18:14:37.608Z,44.10
2022-09-02T18:19:50.214Z,44.70
2022-09-02T18:25:04.254Z,45.60
2022-09-02T18:30:08.653Z,46.40
2022-09-02T18:35:22.768Z,47.40
2022-09-02T18:40:32.888Z,47.50
2022-09-02T18:45:39.171Z,48.30
2022-09-02T18:50:51.054Z,48.70
2022-09-02T18:55:56.153Z,49.30
2022-09-02T19:01:06.382Z,50.00
2022-09-02T19:06:16.984Z,50.20
2022-09-02T19:11:21.140Z,50.60
2022-09-02T19:16:26.077Z,51.30
2022-09-02T19:21:34.830Z,52.20
2022-09-02T19:26:41.369Z,52.30
2022-09-02T19:31:46.689Z,51.80
2022-09-02T19:36:52.897Z,51.90
2022-09-02T19:41:56.704Z,54.40
2022-09-02T19:52:21.226Z,54.40
2022-09-02T19:57:25.114Z,54.00
2022-09-02T20:02:27.324Z,54.30
2022-09-02T20:07:29.628Z,54.30
2022-09-02T20:12:34.996Z,54.80
2022-09-02T20:17:37.483Z,55.40
2022-09-02T20:22:39.643Z,55.40
2022-09-02T20:27:59.159Z,55.90
2022-09-02T20:33:15.939Z,57.40
2022-09-02T20:38:48.290Z,57.50
2022-09-02T20:44:07.019Z,58.40
2022-09-02T20:49:26.071Z,58.20
2022-09-02T20:54:37.742Z,58.80
2022-09-02T21:00:05.387Z,58.80
2022-09-02T21:05:25.550Z,59.40
2022-09-02T21:10:32.902Z,60.00
2022-09-02T21:15:46.013Z,60.10
2022-09-02T21:20:54.219Z,60.30
2022-09-02T21:25:58.184Z,60.60
2022-09-02T21:31:08.683Z,61.00
2022-09-02T21:36:14.856Z,61.80
2022-09-02T21:41:33.002Z,62.80
2022-09-02T21:46:46.318Z,62.20
2022-09-02T21:51:57.410Z,62.40
2022-09-02T21:57:14.374Z,63.00
2022-09-02T22:02:25.991Z,62.80
2022-09-02T22:07:36.277Z,62.80
2022-09-02T22:12:46.769Z,64.90
2022-09-02T22:17:55.565Z,65.80
2022-09-02T22:23:03.532Z,66.50
2022-09-02T22:28:10.503Z,66.30
2022-09-02T22:33:20.711Z,67.80
2022-09-02T22:38:26.627Z,68.50
2022-09-02T22:43:41.532Z,68.20
2022-09-02T22:49:08.187Z,68.50
2022-09-02T22:54:13.117Z,69.40
2022-09-02T22:59:32.954Z,71.30
2022-09-02T23:04:59.147Z,71.30
2022-09-02T23:10:02.107Z,71.00
2022-09-02T23:15:18.072Z,70.40
2022-09-02T23:20:28.389Z,70.30
2022-09-02T23:25:50.276Z,70.60
2022-09-02T23:31:03.095Z,71.60
2022-09-02T23:36:16.945Z,73.30
2022-09-02T23:41:20.172Z,71.70
2022-09-02T23:46:32.790Z,71.90
2022-09-02T23:51:44.364Z,72.70
2022-09-02T23:57:08.240Z,73.30
